createdAt,value
2022-08-31T00:00:08.176Z,16.7
2022-08-31T00:05:08.185Z,16.7
2022-08-31T00:10:07.918Z,16.7
2022-08-31T00:15:08.624Z,16.7
2022-08-31T00:20:08.342Z,16.6
2022-08-31T00:25:07.981Z,16.6
2022-08-31T00:30:07.679Z,16.3
2022-08-31T00:35:08.373Z,16.3
2022-08-31T00:40:08.140Z,16.3
2022-08-31T00:45:07.852Z,16.3
2022-08-31T00:50:08.545Z,16.2
2022-08-31T00:55:08.245Z,16.2
2022-08-31T01:00:07.941Z,16.2
2022-08-31T01:05:08.640Z,16.2
2022-08-31T01:10:08.400Z,16.2
2022-08-31T01:15:08.114Z,16.2
2022-08-31T01:20:07.861Z,16.2
2022-08-31T01:25:08.560Z,16.2
2022-08-31T01:30:08.262Z,16.0
2022-08-31T01:35:11.599Z,16.0
2022-08-31T01:40:08.510Z,15.8
2022-08-31T01:45:08.331Z,15.8
2022-08-31T01:50:08.065Z,15.8
2022-08-31T01:55:07.787Z,15.8
2022-08-31T02:00:08.501Z,15.8
2022-08-31T02:05:08.225Z,15.8
2022-08-31T02:10:07.956Z,15.6
2022-08-31T02:15:07.663Z,15.6
2022-08-31T02:20:08.429Z,15.5
2022-08-31T02:25:08.594Z,15.5
2022-08-31T02:30:08.149Z,15.3
2022-08-31T02:35:07.834Z,15.3
2022-08-31T02:40:11.513Z,15.1
2022-08-31T02:45:07.831Z,15.1
2022-08-31T02:50:08.622Z,15.1
2022-08-31T02:55:08.362Z,15.1
2022-08-31T03:00:08.083Z,15.1
2022-08-31T03:05:07.788Z,15.1
2022-08-31T03:10:08.760Z,15.0
2022-08-31T03:15:08.429Z,15.0
2022-08-31T03:20:08.151Z,15.0
2022-08-31T03:25:07.847Z,15.0
2022-08-31T03:30:08.555Z,15.0
2022-08-31T03:35:08.267Z,15.0
2022-08-31T03:40:08.033Z,14.8
2022-08-31T03:45:07.740Z,14.8
2022-08-31T03:50:08.453Z,14.6
2022-08-31T03:55:08.167Z,14.6
2022-08-31T04:00:07.886Z,14.5
2022-08-31T04:05:02.700Z,14.5
2022-08-31T04:10:02.508Z,14.3
2022-08-31T04:15:02.259Z,14.3
2022-08-31T04:20:02.090Z,14.1
2022-08-31T04:25:02.021Z,14.0
2022-08-31T04:30:02.343Z,14.0
2022-08-31T04:35:02.191Z,13.8
2022-08-31T04:40:02.094Z,13.8
2022-08-31T04:45:01.922Z,13.8
2022-08-31T04:50:02.677Z,13.8
2022-08-31T04:55:02.420Z,13.8
2022-08-31T05:00:02.231Z,13.6
2022-08-31T05:05:01.980Z,13.8
2022-08-31T05:10:01.821Z,13.8
2022-08-31T05:15:02.545Z,14.1
2022-08-31T05:20:02.385Z,14.3
2022-08-31T05:25:02.207Z,14.3
2022-08-31T05:30:02.061Z,14.3
2022-08-31T05:35:01.899Z,14.5
2022-08-31T05:40:02.967Z,14.3
2022-08-31T05:45:02.043Z,14.3
2022-08-31T05:50:01.992Z,14.3
2022-08-31T05:55:02.007Z,14.8
2022-08-31T06:00:02.017Z,14.8
2022-08-31T06:05:02.354Z,15.0
2022-08-31T06:10:02.329Z,15.0
2022-08-31T06:15:02.386Z,15.0
2022-08-31T06:20:02.311Z,15.0
2022-08-31T06:25:02.286Z,15.1
2022-08-31T06:30:02.249Z,15.1
2022-08-31T06:35:02.806Z,15.1
2022-08-31T06:40:02.761Z,15.3
2022-08-31T06:45:02.651Z,15.3
2022-08-31T06:50:02.570Z,15.8
2022-08-31T06:55:02.434Z,15.8
2022-08-31T07:00:02.382Z,16.2
2022-08-31T07:05:02.029Z,16.2
2022-08-31T07:10:01.904Z,16.7
2022-08-31T07:15:02.789Z,16.7
2022-08-31T07:20:02.700Z,17.0
2022-08-31T07:25:02.742Z,17.0
2022-08-31T07:30:02.662Z,17.3
2022-08-31T07:35:02.595Z,17.3
2022-08-31T07:40:07.136Z,17.5
2022-08-31T07:45:02.732Z,17.5
2022-08-31T07:50:03.128Z,17.8
2022-08-31T07:55:02.097Z,17.8
2022-08-31T08:00:02.045Z,18.5
2022-08-31T08:05:01.984Z,18.5
2022-08-31T08:10:01.897Z,19.7
2022-08-31T08:15:02.793Z,19.7
2022-08-31T08:20:02.695Z,20.0
2022-08-31T08:25:02.521Z,20.0
2022-08-31T08:30:02.550Z,20.0
2022-08-31T08:35:02.730Z,20.0
2022-08-31T08:40:02.772Z,21.5
2022-08-31T08:45:03.387Z,21.5
2022-08-31T08:50:02.508Z,22.0
2022-08-31T08:55:02.655Z,22.0
2022-08-31T09:00:02.581Z,22.1
2022-08-31T09:05:02.860Z,22.1
2022-08-31T09:10:02.708Z,21.7
2022-08-31T09:15:02.718Z,21.7
2022-08-31T09:20:02.792Z,23.0
2022-08-31T09:25:02.855Z,23.0
2022-08-31T09:30:02.971Z,23.0
2022-08-31T09:35:01.931Z,23.0
2022-08-31T09:40:06.853Z,23.7
2022-08-31T09:45:02.382Z,23.7
2022-08-31T09:50:02.086Z,23.0
2022-08-31T09:55:02.736Z,23.0
2022-08-31T10:00:02.622Z,22.6
2022-08-31T10:05:02.702Z,22.6
2022-08-31T10:10:02.651Z,23.2
2022-08-31T10:15:02.589Z,23.2
2022-08-31T10:20:02.667Z,23.7
2022-08-31T10:25:02.698Z,23.7
2022-08-31T10:30:02.638Z,23.2
2022-08-31T10:35:02.552Z,25.1
2022-08-31T10:40:02.649Z,24.3
2022-08-31T10:45:02.636Z,24.3
2022-08-31T10:50:02.565Z,23.3
2022-08-31T10:55:02.493Z,23.3
2022-08-31T11:00:02.305Z,23.6
2022-08-31T11:05:02.295Z,26.5
2022-08-31T11:10:02.507Z,24.5
2022-08-31T11:15:02.629Z,24.7
2022-08-31T11:20:02.534Z,24.7
2022-08-31T11:25:02.571Z,24.2
2022-08-31T11:30:02.505Z,24.2
2022-08-31T11:35:02.484Z,25.1
2022-08-31T11:40:02.565Z,25.1
2022-08-31T11:45:02.598Z,25.0
2022-08-31T11:50:10.875Z,25.0
2022-08-31T11:55:12.761Z,25.1
2022-08-31T12:00:02.645Z,25.1
2022-08-31T12:05:02.692Z,24.6
2022-08-31T12:10:02.736Z,24.6
2022-08-31T12:15:02.741Z,24.0
2022-08-31T12:20:12.669Z,24.0
2022-08-31T12:25:02.639Z,25.1
2022-08-31T12:30:02.519Z,25.1
2022-08-31T12:35:02.621Z,25.8
2022-08-31T12:40:02.638Z,26.2
2022-08-31T12:45:02.631Z,26.2
2022-08-31T12:50:02.591Z,26.2
2022-08-31T12:55:04.512Z,26.5
2022-08-31T13:00:02.456Z,26.5
2022-08-31T13:05:02.336Z,28.2
2022-08-31T13:10:03.356Z,28.2
2022-08-31T13:15:02.330Z,28.2
2022-08-31T13:20:03.064Z,28.1
2022-08-31T13:25:09.737Z,29.0
2022-08-31T13:30:12.628Z,29.0
2022-08-31T13:35:02.066Z,28.2
2022-08-31T13:40:02.067Z,28.2
2022-08-31T13:45:02.222Z,27.2
2022-08-31T13:50:02.380Z,29.2
2022-08-31T13:55:02.399Z,28.6
2022-08-31T14:00:02.415Z,26.6
2022-08-31T14:05:02.462Z,27.1
2022-08-31T14:10:02.714Z,27.1
2022-08-31T14:15:02.652Z,26.8
2022-08-31T14:20:02.641Z,28.8
2022-08-31T14:25:02.882Z,29.5
2022-08-31T14:30:02.823Z,29.5
2022-08-31T14:35:02.711Z,28.0
2022-08-31T14:40:07.700Z,28.7
2022-08-31T14:45:02.931Z,28.7
2022-08-31T14:50:02.832Z,29.7
2022-08-31T14:55:02.764Z,26.8
2022-08-31T15:00:02.687Z,28.8
2022-08-31T15:05:02.506Z,28.6
2022-08-31T15:10:02.364Z,25.2
2022-08-31T15:15:02.369Z,25.2
2022-08-31T15:20:02.562Z,25.6
2022-08-31T15:25:02.896Z,25.6
2022-08-31T15:30:02.807Z,27.7
2022-08-31T15:35:02.638Z,28.1
2022-08-31T15:40:03.679Z,28.2
2022-08-31T15:45:01.867Z,28.2
2022-08-31T15:51:06.559Z,29.2
2022-08-31T15:55:03.761Z,29.2
2022-08-31T16:00:02.597Z,28.1
2022-08-31T16:05:02.598Z,28.1
2022-08-31T16:10:02.486Z,28.0
2022-08-31T16:15:02.400Z,26.0
2022-08-31T16:20:02.459Z,25.2
2022-08-31T16:25:02.627Z,25.3
2022-08-31T16:30:02.124Z,25.3
2022-08-31T16:35:02.108Z,26.5
2022-08-31T16:40:02.326Z,26.8
2022-08-31T16:45:02.927Z,26.8
2022-08-31T16:50:02.907Z,26.6
2022-08-31T16:55:02.860Z,26.6
2022-08-31T17:00:02.976Z,25.5
2022-08-31T17:05:02.059Z,25.5
2022-08-31T17:10:01.957Z,25.2
2022-08-31T17:15:01.848Z,25.2
2022-08-31T17:20:02.687Z,24.8
2022-08-31T17:25:01.925Z,24.8
2022-08-31T17:30:02.767Z,24.2
2022-08-31T17:35:02.583Z,24.2
2022-08-31T17:40:02.139Z,23.7
2022-08-31T17:45:02.087Z,23.7
2022-08-31T17:50:01.980Z,23.2
2022-08-31T17:55:01.977Z,23.2
2022-08-31T18:00:01.893Z,22.7
2022-08-31T18:05:02.945Z,22.7
2022-08-31T18:10:01.951Z,21.7
2022-08-31T18:15:01.896Z,21.7
2022-08-31T18:20:02.754Z,21.2
2022-08-31T18:25:02.672Z,21.2
2022-08-31T18:30:02.573Z,20.8
2022-08-31T18:35:02.528Z,20.8
2022-08-31T18:40:06.440Z,20.6
2022-08-31T18:45:02.096Z,20.6
2022-08-31T18:50:02.113Z,20.1
2022-08-31T18:55:02.029Z,20.1
2022-08-31T19:00:01.964Z,19.7
2022-08-31T19:05:02.025Z,19.7
2022-08-31T19:10:02.029Z,19.7
2022-08-31T19:15:02.100Z,19.7
2022-08-31T19:20:03.839Z,19.2
2022-08-31T19:25:02.749Z,19.2
2022-08-31T19:30:02.805Z,19.0
2022-08-31T19:35:02.802Z,19.0
2022-08-31T19:40:05.474Z,18.8
2022-08-31T19:45:24.333Z,18.8
2022-08-31T19:50:02.514Z,18.6
2022-08-31T19:55:09.039Z,18.6
2022-08-31T20:00:02.277Z,18.5
2022-08-31T20:05:02.196Z,18.5
2022-08-31T20:10:02.174Z,18.2
2022-08-31T20:15:02.095Z,18.2
2022-08-31T20:20:02.017Z,18.2
2022-08-31T20:25:01.963Z,18.2
2022-08-31T20:30:01.815Z,18.1
2022-08-31T20:35:15.561Z,18.1
2022-08-31T20:40:08.406Z,17.7
2022-08-31T20:45:08.254Z,17.7
2022-08-31T20:50:08.019Z,17.7
2022-08-31T20:55:07.854Z,17.7
2022-08-31T21:00:08.646Z,17.5
2022-08-31T21:05:36.128Z,17.5
2022-08-31T21:10:08.539Z,17.2
2022-08-31T21:15:08.313Z,17.2
2022-08-31T21:20:08.115Z,17.1
2022-08-31T21:25:07.890Z,17.1
2022-08-31T21:30:08.652Z,17.0
2022-08-31T21:35:08.395Z,17.0
2022-08-31T21:40:08.310Z,16.7
2022-08-31T21:45:08.096Z,16.7
2022-08-31T21:50:07.878Z,16.6
2022-08-31T21:55:08.698Z,16.6
2022-08-31T22:00:08.511Z,16.6
2022-08-31T22:05:09.310Z,16.6
2022-08-31T22:10:08.207Z,16.6
2022-08-31T22:15:07.944Z,16.6
2022-08-31T22:20:07.723Z,16.2
2022-08-31T22:25:08.549Z,16.2
2022-08-31T22:30:08.076Z,16.2
2022-08-31T22:35:08.364Z,16.2
2022-08-31T22:40:08.191Z,16.0
2022-08-31T22:45:08.004Z,16.0
2022-08-31T22:50:07.754Z,15.8
2022-08-31T22:55:08.629Z,15.8
2022-08-31T23:01:00.507Z,15.6
2022-08-31T23:05:07.928Z,15.6
2022-08-31T23:10:08.765Z,15.5
2022-08-31T23:15:08.614Z,15.5
2022-08-31T23:20:08.390Z,15.1
2022-08-31T23:25:08.254Z,15.1
2022-08-31T23:30:07.997Z,15.1
2022-08-31T23:35:07.779Z,15.1
2022-08-31T23:40:08.646Z,15.0
2022-08-31T23:45:08.414Z,15.0
2022-08-31T23:50:08.228Z,14.8
2022-08-31T23:55:08.281Z,14.8
